Mousa Mertens

Scout - Racing Genk
5 Dez 2027
Sonntag
Verarbeitung

Persönlichkeit

Anpassungsfähigkeit (2) Ehrgeiz (14) Kontroverse (19) Loyalität (1) Druck (15) Professionalität (20) Fairness (9) Temperament (19)

Profil

Trainerstil Demokratisch
Lizenz Kontinentale B
Entschlossenheit 12
Menschenführung 8
Motivation 8
Disziplin 9
Arbeitszufriedenheit
100%
Ermüdung
0%
Rolle Scout
Gehalt 73.5K p/W
Vertrag 14.03.2029

Leistung

Verhalten Gut
Trainingseffektivität
52%
Spielerentwicklung
70%
Verletzungsprävention
35%
Taktische Umsetzung
75%

Aktuell beobachtet

120
Spieler Verein Status Fähigkeit Vertrauen Beobachtet Zuletzt beobachtet Letzte Stimme
Lucas Duré Montevideo City Torque Aktiv 96 / 107 40% 1 31.08.2027 -
Mamoutou Berthé US Bougouba Aktiv 94 / 110 40% 1 31.08.2027 -
Daniel Awuni Aduana Stars Aktiv 97 / 100 40% 1 31.08.2027 -
Ihojan Pérez Cerro Largo Aktiv 95 / 99 40% 2 30.08.2027 -
Luka Andrade Montevideo City Torque Aktiv 100 / 109 40% 1 30.08.2027 -
Leonel Jaime River Plate Aktiv 111 / 116 40% 1 30.08.2027 -
Alejandro Mina Cortulua Aktiv 113 / 115 40% 3 29.08.2027 -
Pablo Suárez Rentistas Aktiv 97 / 101 40% 2 29.08.2027 -
Gustavo Lozano Zamora Aktiv 96 / 98 40% 1 29.08.2027 -
Maher Carrizo Ajax Aktiv 125 / 132 40% 3 28.08.2027 -
Araphat Mohammed Ashanti Gold Aktiv 99 / 111 40% 1 27.08.2027 -
Bryan Caicedo Leones Aktiv 98 / 105 40% 1 27.08.2027 -
Mateo Peralta Danubio Aktiv 116 / 119 40% 1 27.08.2027 -
Nathan Doualla Canon Yaounde Aktiv 98 / 103 40% 1 26.08.2027 -
Kaick FC Dallas Aktiv 99 / 112 40% 1 26.08.2027 -
Dániel Pintér Inter Miami CF Aktiv 91 / 99 40% 3 24.08.2027 -
Maximo Ingravidi Godoy Cruz Aktiv 101 / 110 40% 1 24.08.2027 -
David Martínez Los Angeles Football Club Aktiv 124 / 131 40% 1 23.08.2027 -
Sunday Aniebet Enyimba Aktiv 89 / 95 40% 1 23.08.2027 -
Daouda Togola Stade Malien Aktiv 98 / 98 40% 2 22.08.2027 -
Mateo Silvetti Inter Miami CF Aktiv 132 / 123 40% 1 22.08.2027 -
Jeffrey Annan Hasaacas Aktiv 94 / 90 40% 1 22.08.2027 -
Lorenzo Palmisani Frosinone Aktiv 141 / 138 40% 4 19.08.2027 -
Tommaso Ghirardello Gubbio Aktiv 96 / 108 40% 2 19.08.2027 -
Theo Sander IF Elfsborg Aktiv 127 / 127 40% 1 19.08.2027 -
Frankarlos Benítez Caracas Aktiv 104 / 111 40% 1 19.08.2027 -
Paco Esteban Guidonia Montecelio Aktiv 97 / 108 40% 1 19.08.2027 -
Matías Acevedo Racing Club Aktiv 102 / 115 40% 1 17.08.2027 -
Maren Kefas Plateau United Aktiv 94 / 97 40% 1 17.08.2027 -
Andrija Maksimović VfL Wolfsburg Aktiv 128 / 132 40% 2 13.08.2027 -
Peter Amidu Acquah Asante Kotoko Aktiv 104 / 102 40% 2 13.08.2027 -
Ishmael Addo Heart of Lions Aktiv 91 / 100 40% 1 13.08.2027 -
John Amah Plateau United Aktiv 103 / 102 40% 2 10.08.2027 -
Chris Brady Chicago Fire Aktiv 143 / 138 40% 3 10.08.2027 -
Ludovico Del Sorbo Sorrento Aktiv 110 / 116 40% 3 10.08.2027 -
Sergio Garcia Cortulua Aktiv 119 / 121 40% 5 09.08.2027 -
Sebastián Jaume Albion Aktiv 105 / 107 40% 3 09.08.2027 -
Kostantis Tzolakis Hull City Aktiv 144 / 149 40% 3 09.08.2027 -
Josh Keeley Luton Town Aktiv 133 / 130 40% 5 08.08.2027 -
Joe Knight Stevenage Aktiv 109 / 111 40% 2 08.08.2027 -
Elia Boseggia Novara Aktiv 120 / 118 40% 4 08.08.2027 -
Josh King Fulham Aktiv 147 / 150 40% 2 08.08.2027 -
Chris Rigg Bournemouth Aktiv 137 / 142 40% 1 08.08.2027 -
Dani Ángel Oldham Athletic Aktiv 98 / 102 40% 3 07.08.2027 -
Ezekiel Kwame Alladoh Philadelphia Union Aktiv 115 / 122 40% 1 07.08.2027 -
Elías de León Deportivo Maldonado Aktiv 100 / 102 40% 1 07.08.2027 -
Ryunosuke Sato Valencia Aktiv 130 / 135 40% 2 05.08.2027 -
Oscar Schwartau Norwich City Aktiv 123 / 131 40% 1 05.08.2027 -
Sidiki Chérif Coventry City Aktiv 128 / 134 40% 2 03.08.2027 -
Ollie Scarles West Ham United Aktiv 132 / 136 40% 1 03.08.2027 -
Mfundo Vilakazi Kaizer Chiefs Aktiv 122 / 126 40% 3 01.08.2027 -
Izan Merino Málaga Aktiv 127 / 133 40% 4 01.08.2027 -
Rayan Bournemouth Aktiv 135 / 142 40% 2 01.08.2027 -
Mateus Mide Porto Aktiv 104 / 111 40% 2 31.07.2027 -
Leo Castledine Middlesbrough Aktiv 135 / 136 40% 1 31.07.2027 -
Killian Cahill Leyton Orient Aktiv 114 / 112 40% 2 30.07.2027 -
Antonín Kinský Tottenham Aktiv 147 / 148 40% 1 30.07.2027 -
Robin Roefs Sunderland Aktiv 154 / 152 40% 1 30.07.2027 -
Tom Booth Crewe Alexandra Aktiv 109 / 110 40% 4 29.07.2027 -
Max Weiß Burnley Aktiv 134 / 136 40% 3 29.07.2027 -
Radek Vítek Middlesbrough Aktiv 143 / 146 40% 1 28.07.2027 -
Filippo Manfrin Arzignano Aktiv 110 / 108 40% 1 27.07.2027 -
Jesús Rodríguez Napoli Aktiv 144 / 150 40% 1 27.07.2027 -
Ivan Pakholiuk Kolos Aktiv 119 / 123 40% 3 25.07.2027 -
William Rovida Pro Patria Aktiv 112 / 109 40% 3 24.07.2027 -
Ángel Maciel Tacuarembo Aktiv 107 / 107 40% 1 23.07.2027 -
Lucas Jetten Cambuur Aktiv 117 / 121 40% 4 22.07.2027 -
Othmane Maamma Watford Aktiv 130 / 130 40% 2 22.07.2027 -
Ifeanyi Emmanuel Niger Tornadoes Aktiv 104 / 107 40% 2 22.07.2027 -
Javier Vallejos Central Córdoba SdE Aktiv 103 / 107 40% 1 22.07.2027 -
Hans Courtois Mouscron Aktiv 123 / 124 40% 3 21.07.2027 -
Ali Ishaku Abia Warriors Aktiv 93 / 99 40% 1 20.07.2027 -
Nicolás Azambuja Nottingham Forest Aktiv 116 / 132 40% 1 19.07.2027 -
Harrison Bettoni Wigan Athletic Aktiv 96 / 105 40% 3 15.07.2027 -
Nestory Irankunda Watford Aktiv 120 / 126 40% 3 15.07.2027 -
Ethan Williams Peterborough United Aktiv 121 / 121 40% 2 15.07.2027 -
Sonny Finch Grimsby Town Aktiv 93 / 95 40% 1 12.07.2027 -
Dries Vanaken Mouscron Aktiv 127 / 125 40% 3 10.07.2027 -
Iwan Henstra Cambuur Aktiv 98 / 103 40% 2 10.07.2027 -
Ronan Kpakio West Bromwich Albion Aktiv 120 / 128 40% 1 10.07.2027 -
Otto Stange Hamburger SV Aktiv 116 / 128 40% 1 09.07.2027 -
Ichem Ferrah Pisa Aktiv 112 / 117 40% 1 09.07.2027 -
Nikita Kokarev Krylya Sovetov Aktiv 121 / 123 40% 1 07.07.2027 -
Reuben Reid Charlton Athletic Aktiv 94 / 105 40% 3 03.07.2027 -
James Trafford Leeds United Aktiv 147 / 148 40% 1 02.07.2027 -
Strahinja Manojlović Radnicki Nis Aktiv 116 / 114 40% 1 01.07.2027 -
Kevin Castagne KV Oostende Aktiv 112 / 123 40% 2 29.06.2027 -
Jay Robinson Southampton Aktiv 127 / 129 40% 1 29.06.2027 -
Ilja Tuseev Chelyabinsk Aktiv 97 / 102 40% 2 26.06.2027 -
Lasse Abildgaard Willem II Aktiv 95 / 102 40% 1 24.06.2027 -
Matthieu Epolo Standard Liege Aktiv 127 / 127 40% 1 24.06.2027 -
Denys Ihnatenko Livyi Bereh Aktiv 110 / 116 40% 1 24.06.2027 -
Asanele Bonani Chippa United Aktiv 92 / 101 40% 1 20.06.2027 -
Jan Bürger Burton Albion Aktiv 111 / 119 40% 1 18.06.2027 -
Themba Tau Ajax Cape Town Aktiv 103 / 109 40% 2 10.06.2027 -
Ben Ahmed Kohili Paradou Verloren 107 / 110 40% 1 10.06.2027 -
Luke Baartman Bidvest Wits Aktiv 99 / 115 40% 1 09.06.2027 -
Jakub Surovčík Sparta Prague Verloren 116 / 119 40% 1 01.06.2027 -
Charlie Hughes Hull City Aktiv 130 / 128 40% 3 24.01.2027 -
Oscar Fraulo Derby County Aktiv 120 / 121 40% 1 24.01.2027 -
Alfie Gilchrist West Bromwich Albion Aktiv 123 / 125 40% 2 22.01.2027 -
Edoardo Bove Watford Aktiv 133 / 130 40% 1 22.01.2027 -
Taylor Harwood-Bellis Southampton Aktiv 132 / 131 40% 2 19.01.2027 -
Ilay Camara Anderlecht Aktiv 128 / 128 40% 1 19.01.2027 -
Joaquin Seys Club Brugge Aktiv 130 / 128 40% 1 19.01.2027 -
Jacques Ekomié Wrexham Aktiv 124 / 128 40% 2 18.01.2027 -
Shandre Campbell KV Kortrijk Aktiv 108 / 119 40% 1 18.01.2027 -
Agustín Fernández Esteghlal Ahvaz Aktiv 87 / 94 40% 1 18.01.2027 -
Ângelo Al-Nassr Aktiv 126 / 137 40% 1 16.01.2027 -
Ben Nelson Leicester City Abgelehnt 125 / 131 40% 1 16.01.2027 Mehr Infos nötig
Samuele Angori Pisa Aktiv 136 / 133 40% 2 15.01.2027 -
José Marsà KV Mechelen Aktiv 126 / 127 40% 1 15.01.2027 -
Freddie Potts Club Brugge Aktiv 129 / 131 40% 1 13.01.2027 -
Teden Mengi Luton Town Aktiv 125 / 122 40% 1 13.01.2027 -
Rodrigo Huescas FC Copenhagen Aktiv 139 / 133 40% 1 12.01.2027 -
David Hubert Mouscron Aktiv 130 / 126 40% 1 12.01.2027 -
Bosun Lawal Stoke City Aktiv 126 / 127 40% 1 11.01.2027 -
Joel Ordóñez Club Brugge Aktiv 132 / 131 40% 1 11.01.2027 -
João Klauss LA Galaxy Aktiv 128 / 128 40% 1 04.08.2026 -
Dejan Joveljić Seattle Sounders Aktiv 119 / 120 40% 1 04.08.2026 -